CheckWX is a tool to help pilots better visualize weather data.  It is not intended as a substitute for an official pre-flight weather briefing.

15:33:15 UTC

EGGD TAF
Bristol International Airport
Bristol, United Kingdom
TAF AMD EGGD 171315Z 1713/1812 19006KT 9999 SCT030 TEMPO 1713/1812 7000 SHRA PROB30 TEMPO 1713/1719 20015G25KT 3000 +SHRA TSRA BKN009CB PROB30 TEMPO 1719/1810 20015G25KT 3000 +SHRA BKN009CB BECMG 1809/1812 21016KT TEMPO 1810/1812 22019G29KT PROB30 TEMPO 1810/1812 3000 +SHRA BKN012CB

Oct-17@
13:00 UTC

Oct-17 @ 13:00 UTC

Oct-18@
09:00 UTC

Oct-18 @ 09:00 UTC

TAF AMD EGGD 171315Z 1713/1812 19006KT 9999 SCT030
Wind
  • 190° at 6 KTS
Cloud Levels
  • Scattered at 3,000' AGL

Oct-17@
13:00 UTC

Oct-17 @ 13:00 UTC

Oct-17@
19:00 UTC

Oct-17 @ 19:00 UTC

PROB30 TEMPO 1713/1719 20015G25KT 3000 +SHRA TSRA BKN009CB

Temporary - 30% Likelihood

Temporary - 30% Likelihood during this time.

Wind
  • 200° at 15 KTS
  • {Gusting to 25 KTS
Conditions
Heavy Rain, Thunderstorm, Rain
Cloud Levels
  • Broken at 900' AGL

Oct-17@
13:00 UTC

Oct-17 @ 13:00 UTC

Oct-18@
12:00 UTC

Oct-18 @ 12:00 UTC

TEMPO 1713/1812 7000 SHRA

Temporary

Temporary Changes expected for less than half the time period

Conditions
Rain

Oct-17@
19:00 UTC

Oct-17 @ 19:00 UTC

Oct-18@
10:00 UTC

Oct-18 @ 10:00 UTC

PROB30 TEMPO 1719/1810 20015G25KT 3000 +SHRA BKN009CB

Temporary - 30% Likelihood

Temporary - 30% Likelihood during this time.

Wind
  • 200° at 15 KTS
  • {Gusting to 25 KTS
Conditions
Heavy Rain
Cloud Levels
  • Broken at 900' AGL

Oct-18@
09:00 UTC

Oct-18 @ 09:00 UTC

Oct-18@
12:00 UTC

Oct-18 @ 12:00 UTC

BECMG 1809/1812 21016KT

Becoming

Becoming Conditions expected by Fri, Oct 18, 2019 @ 12:00 UTC

Wind
  • 210° at 16 KTS
Cloud Levels
  • Scattered at 3,000' AGL

Oct-18@
10:00 UTC

Oct-18 @ 10:00 UTC

Oct-18@
12:00 UTC

Oct-18 @ 12:00 UTC

TEMPO 1810/1812 22019G29KT

Temporary

Temporary Changes expected for less than half the time period

Wind
  • 220° at 19 KTS
  • {Gusting to 29 KTS

Oct-18@
10:00 UTC

Oct-18 @ 10:00 UTC

Oct-18@
12:00 UTC

Oct-18 @ 12:00 UTC

PROB30 TEMPO 1810/1812 3000 +SHRA BKN012CB

Temporary - 30% Likelihood

Temporary - 30% Likelihood during this time.

Conditions
Heavy Rain
Cloud Levels
  • Broken at 1,200' AGL